KCIR

Cairo Regional Airport

Cairo, Illinois, USA
METAR KCIR 211955Z AUTO 17005KT 10SM OVC012 12/11 A2999 RMK AO2 T01220108
Observed Flight Rules
Jan-21 @ 19:55 UTC (34 minutes ago) Marginal Visual Flight Rules
Wind Visibility Clouds
170° at 5 knots 10 miles
  • Overcast at 1,200' AGL
Temperatures Readings
Current 12°C / 54°F
Dewpoint 11°C / 52°F
Humidity 94%
Altimeter 29.99" Hg
Pressure 1016 hPa
Elevation 98
METAR KCIR 211955Z AUTO 17005KT 10SM OVC012 12/11 A2999 RMK AO2 T01220108
Observed Flight Rules
Jan-21 @ 19:55 UTC
(34 minutes ago)
MVFR
Wind Visibility
170° at 5 knots 10 miles
Clouds
  • Overcast at 1,200' AGL
Temperature Dewpoint
12°C / 54°F 11°C / 52°F
Humidity Altimeter Pressure
94% 29.99" Hg 1016 hPa